createdAt,value
2022-08-18T00:01:48.806Z,48.49
2022-08-18T00:04:32.402Z,48.25
2022-08-18T00:07:03.870Z,48.71
2022-08-18T00:09:32.851Z,48.82
2022-08-18T00:12:03.618Z,48.83
2022-08-18T00:14:31.219Z,49.33
2022-08-18T00:16:58.857Z,49.58
2022-08-18T00:19:45.582Z,49.68
2022-08-18T00:22:17.428Z,50.11
2022-08-18T00:24:47.874Z,50.00
2022-08-18T00:27:23.578Z,50.41
2022-08-18T00:29:52.852Z,50.82
2022-08-18T00:32:26.758Z,50.62
2022-08-18T00:34:54.110Z,50.51
2022-08-18T00:37:22.828Z,51.09
2022-08-18T00:39:53.878Z,50.73
2022-08-18T00:42:28.943Z,51.23
2022-08-18T00:45:04.941Z,50.85
2022-08-18T00:47:42.030Z,50.93
2022-08-18T00:50:21.527Z,51.32
2022-08-18T00:52:56.896Z,51.88
2022-08-18T00:55:25.195Z,51.49
2022-08-18T00:58:01.394Z,51.54
2022-08-18T01:00:29.225Z,51.97
2022-08-18T01:03:00.492Z,52.13
2022-08-18T01:05:40.863Z,52.02
2022-08-18T01:08:12.128Z,52.52
2022-08-18T01:10:40.697Z,52.03
2022-08-18T01:13:08.508Z,52.51
2022-08-18T01:15:36.483Z,52.81
2022-08-18T01:18:26.516Z,52.95
2022-08-18T01:21:44.252Z,53.00
2022-08-18T01:24:13.098Z,53.21
2022-08-18T01:26:50.029Z,53.06
2022-08-18T01:29:21.416Z,53.28
2022-08-18T01:31:55.669Z,52.93
2022-08-18T01:34:28.184Z,53.05
2022-08-18T01:36:55.460Z,53.11
2022-08-18T01:41:21.074Z,53.19
2022-08-18T01:42:12.716Z,53.21
2022-08-18T01:44:41.869Z,53.27
2022-08-18T01:47:11.257Z,53.55
2022-08-18T01:49:41.994Z,53.42
2022-08-18T01:52:20.402Z,53.78
2022-08-18T01:54:52.553Z,54.15
2022-08-18T01:57:21.227Z,53.90
2022-08-18T01:59:48.825Z,53.91
2022-08-18T02:02:24.538Z,53.91
2022-08-18T02:04:59.541Z,53.89
2022-08-18T02:07:34.307Z,53.83
2022-08-18T02:10:07.289Z,53.88
2022-08-18T02:12:40.837Z,53.96
2022-08-18T02:15:09.219Z,53.99
2022-08-18T02:17:41.591Z,53.91
2022-08-18T02:20:11.262Z,54.43
2022-08-18T02:22:38.515Z,54.04
2022-08-18T02:25:06.941Z,54.17
2022-08-18T02:27:35.318Z,53.96
2022-08-18T02:30:08.511Z,53.97
2022-08-18T02:32:36.116Z,54.20
2022-08-18T02:35:04.567Z,54.11
2022-08-18T02:37:35.331Z,54.35
2022-08-18T02:40:02.523Z,54.62
2022-08-18T02:42:31.153Z,54.50
2022-08-18T02:44:58.199Z,54.34
2022-08-18T02:47:26.061Z,54.29
2022-08-18T02:49:55.328Z,54.28
2022-08-18T02:52:22.765Z,54.35
2022-08-18T02:54:49.800Z,54.30
2022-08-18T02:57:16.884Z,54.33
2022-08-18T02:59:47.333Z,54.46
2022-08-18T03:02:15.420Z,54.28
2022-08-18T03:04:42.536Z,54.31
2022-08-18T03:07:09.752Z,53.85
2022-08-18T03:09:37.026Z,53.65
2022-08-18T03:12:04.541Z,53.40
2022-08-18T03:14:31.897Z,53.14
2022-08-18T03:16:59.967Z,52.93
2022-08-18T03:19:29.278Z,52.42
2022-08-18T03:22:03.210Z,52.03
2022-08-18T03:24:32.499Z,51.82
2022-08-18T03:27:01.759Z,51.36
2022-08-18T03:29:32.352Z,50.81
2022-08-18T03:32:05.440Z,50.69
2022-08-18T03:34:33.164Z,50.10
2022-08-18T03:37:00.357Z,49.67
2022-08-18T03:39:28.527Z,49.32
2022-08-18T03:41:58.325Z,48.98
2022-08-18T03:44:30.955Z,49.27
2022-08-18T03:46:58.620Z,49.34
2022-08-18T03:49:27.428Z,49.51
2022-08-18T03:51:54.953Z,49.41
2022-08-18T03:54:22.098Z,49.28
2022-08-18T03:56:49.803Z,49.04
2022-08-18T03:59:20.024Z,49.04
2022-08-18T04:01:49.248Z,48.66
2022-08-18T04:04:20.932Z,48.44
2022-08-18T04:06:55.575Z,48.49
2022-08-18T04:09:24.717Z,48.69
2022-08-18T04:11:52.265Z,48.22
2022-08-18T04:14:31.402Z,48.08
2022-08-18T04:16:59.042Z,47.05
2022-08-18T04:19:28.830Z,46.51
2022-08-18T04:21:58.080Z,45.21
2022-08-18T04:24:28.199Z,43.49
2022-08-18T04:27:01.175Z,42.39
2022-08-18T04:29:28.763Z,42.21
2022-08-18T04:31:56.290Z,41.24
2022-08-18T04:34:23.555Z,39.09
2022-08-18T04:36:54.400Z,37.48
2022-08-18T04:39:23.482Z,36.26
2022-08-18T04:41:52.835Z,35.40
2022-08-18T04:44:20.392Z,34.40
2022-08-18T04:46:52.849Z,33.86
2022-08-18T04:49:26.186Z,32.37
2022-08-18T04:52:36.262Z,31.82
2022-08-18T04:55:03.743Z,30.82
2022-08-18T04:57:35.212Z,30.05
2022-08-18T05:00:07.081Z,30.38
2022-08-18T05:02:35.165Z,30.07
2022-08-18T05:05:04.308Z,29.48
2022-08-18T05:07:32.748Z,29.59
2022-08-18T05:09:59.874Z,29.39
2022-08-18T05:12:27.083Z,29.03
2022-08-18T05:14:57.402Z,28.64
2022-08-18T05:17:30.180Z,28.30
2022-08-18T05:20:00.788Z,28.37
2022-08-18T05:22:37.809Z,27.45
2022-08-18T05:25:06.051Z,27.63
2022-08-18T05:27:35.430Z,27.21
2022-08-18T05:30:04.327Z,26.13
2022-08-18T05:32:47.935Z,26.03
2022-08-18T05:35:29.104Z,25.82
2022-08-18T05:38:26.960Z,25.61
2022-08-18T05:41:06.538Z,25.26
2022-08-18T05:43:34.157Z,24.90
2022-08-18T05:46:03.777Z,24.83
2022-08-18T05:48:30.888Z,24.65
2022-08-18T05:51:00.186Z,24.57
2022-08-18T05:53:48.742Z,24.63
2022-08-18T05:56:43.927Z,24.60
2022-08-18T05:59:15.396Z,24.37
2022-08-18T06:02:10.969Z,24.20
2022-08-18T06:05:11.927Z,24.60
2022-08-18T06:07:59.167Z,23.97
2022-08-18T06:10:26.890Z,23.58
2022-08-18T06:13:12.602Z,23.60
2022-08-18T06:16:04.646Z,23.34
2022-08-18T06:18:50.222Z,23.08
2022-08-18T06:21:54.747Z,22.48
2022-08-18T06:24:36.168Z,22.66
2022-08-18T06:27:41.101Z,22.07
2022-08-18T06:30:13.412Z,21.70
2022-08-18T06:32:56.885Z,21.51
2022-08-18T06:35:36.758Z,21.12
2022-08-18T06:38:45.768Z,21.14
2022-08-18T06:41:38.006Z,20.75
2022-08-18T06:44:29.295Z,21.69
2022-08-18T06:47:15.551Z,21.20
2022-08-18T06:50:05.988Z,21.09
2022-08-18T06:52:37.094Z,20.93
2022-08-18T06:55:16.999Z,21.44
2022-08-18T06:57:57.944Z,21.24
2022-08-18T07:00:32.423Z,21.08
2022-08-18T07:03:15.275Z,20.80
2022-08-18T07:05:57.642Z,21.03
2022-08-18T07:08:37.037Z,20.72
2022-08-18T07:11:22.856Z,19.91
2022-08-18T07:14:15.128Z,19.36
2022-08-18T07:16:59.827Z,19.44
2022-08-18T07:19:31.797Z,19.64
2022-08-18T07:22:05.019Z,19.46
2022-08-18T07:24:38.803Z,19.12
2022-08-18T07:27:08.144Z,18.36
2022-08-18T07:30:01.205Z,17.97
2022-08-18T07:32:44.924Z,17.56
2022-08-18T07:35:17.603Z,17.63
2022-08-18T07:37:55.011Z,16.88
2022-08-18T07:40:30.013Z,16.58
2022-08-18T07:43:08.085Z,16.23
2022-08-18T07:45:47.026Z,16.84
2022-08-18T07:48:37.656Z,17.23
2022-08-18T07:51:43.717Z,16.83
2022-08-18T07:54:47.914Z,15.69
2022-08-18T07:57:29.694Z,15.45
2022-08-18T08:00:47.794Z,15.07
2022-08-18T08:03:32.836Z,15.07
2022-08-18T08:06:19.639Z,14.72
2022-08-18T08:08:59.263Z,14.09
2022-08-18T08:11:41.701Z,14.77
2022-08-18T08:14:36.161Z,14.77
2022-08-18T08:17:23.834Z,15.21
2022-08-18T08:20:32.961Z,15.21
2022-08-18T08:23:32.575Z,16.07
2022-08-18T08:26:03.076Z,15.96
2022-08-18T08:28:52.454Z,15.76
2022-08-18T08:31:39.385Z,15.67
2022-08-18T08:34:23.057Z,15.68
2022-08-18T08:36:54.074Z,15.61
2022-08-18T08:39:28.432Z,15.31
2022-08-18T08:42:31.985Z,14.59
2022-08-18T08:44:59.957Z,14.49
2022-08-18T08:47:36.132Z,14.82
2022-08-18T08:50:18.495Z,14.58
2022-08-18T08:52:50.964Z,15.07
2022-08-18T08:55:31.766Z,14.61
2022-08-18T08:58:20.982Z,14.58
2022-08-18T09:00:51.785Z,14.91
2022-08-18T09:03:37.110Z,15.51
2022-08-18T09:06:33.213Z,15.67
2022-08-18T09:09:03.169Z,15.90
2022-08-18T09:11:30.329Z,15.84
2022-08-18T09:14:00.281Z,16.33
2022-08-18T09:16:52.908Z,16.88
2022-08-18T09:19:29.572Z,17.10
2022-08-18T09:22:15.262Z,17.80
2022-08-18T09:24:52.931Z,18.22
2022-08-18T09:28:06.767Z,17.69
2022-08-18T09:31:03.315Z,17.72
2022-08-18T09:33:45.790Z,19.22
2022-08-18T09:36:35.155Z,19.47
2022-08-18T09:39:39.656Z,19.49
2022-08-18T09:42:17.620Z,19.88
2022-08-18T09:44:48.694Z,20.48
2022-08-18T09:47:21.991Z,21.21
2022-08-18T09:49:54.782Z,20.64
2022-08-18T09:52:24.413Z,21.49
2022-08-18T09:54:59.948Z,21.00
2022-08-18T09:57:28.431Z,21.19
2022-08-18T10:00:07.642Z,21.74
2022-08-18T10:02:56.299Z,21.21
2022-08-18T10:05:29.437Z,21.83
2022-08-18T10:08:01.702Z,22.25
2022-08-18T10:10:59.889Z,22.03
2022-08-18T10:13:49.101Z,22.58
2022-08-18T10:17:13.470Z,22.64
2022-08-18T10:20:26.160Z,23.14
2022-08-18T10:22:56.599Z,23.72
2022-08-18T10:25:41.077Z,23.15
2022-08-18T10:28:13.165Z,23.29
2022-08-18T10:30:56.249Z,23.76
2022-08-18T10:33:58.956Z,23.63
2022-08-18T10:36:47.865Z,22.82
2022-08-18T10:39:43.322Z,23.54
2022-08-18T10:42:11.241Z,23.97
2022-08-18T10:44:45.711Z,23.77
2022-08-18T10:47:33.666Z,25.00
2022-08-18T10:50:05.519Z,24.23
2022-08-18T10:52:47.205Z,23.97
2022-08-18T10:55:50.329Z,23.88
2022-08-18T10:58:28.050Z,23.89
2022-08-18T11:01:12.845Z,23.29
2022-08-18T11:03:59.556Z,22.57
2022-08-18T11:06:47.745Z,22.70
2022-08-18T11:09:27.116Z,22.60
2022-08-18T11:11:59.865Z,22.85
2022-08-18T11:14:47.432Z,24.06
2022-08-18T11:17:42.833Z,24.50
2022-08-18T11:20:13.290Z,24.93
2022-08-18T11:22:51.353Z,24.78
2022-08-18T11:25:28.062Z,24.44
2022-08-18T11:27:57.190Z,23.23
2022-08-18T11:30:32.883Z,23.68
2022-08-18T11:33:03.664Z,24.18
2022-08-18T11:35:47.450Z,23.25
2022-08-18T11:38:23.122Z,23.69
2022-08-18T11:44:00.315Z,23.03
2022-08-18T11:46:32.127Z,22.63
2022-08-18T11:49:26.207Z,22.71
2022-08-18T11:52:03.698Z,23.17
2022-08-18T11:54:54.328Z,22.98
2022-08-18T11:57:42.067Z,23.28
2022-08-18T12:00:57.188Z,21.63
2022-08-18T12:03:31.833Z,22.25
2022-08-18T12:06:19.368Z,22.78
2022-08-18T12:09:24.391Z,21.66
2022-08-18T12:12:05.221Z,22.59
2022-08-18T12:14:50.321Z,22.80
2022-08-18T12:17:19.316Z,22.65
2022-08-18T12:19:48.149Z,21.88
2022-08-18T12:22:24.530Z,21.87
2022-08-18T12:24:53.404Z,21.23
2022-08-18T12:27:24.029Z,21.56
2022-08-18T12:29:53.388Z,22.83
2022-08-18T12:32:46.531Z,22.79
2022-08-18T12:35:11.697Z,22.88
2022-08-18T12:38:03.329Z,22.84
2022-08-18T12:40:30.311Z,22.75
2022-08-18T12:42:57.768Z,22.89
2022-08-18T12:45:27.104Z,22.77
2022-08-18T12:47:54.621Z,22.88
2022-08-18T12:50:31.482Z,23.25
2022-08-18T12:53:00.618Z,23.22
2022-08-18T12:55:34.389Z,23.52
2022-08-18T12:58:04.080Z,23.49
2022-08-18T13:00:32.799Z,23.11
2022-08-18T13:03:00.260Z,23.56
2022-08-18T13:05:30.263Z,23.90
2022-08-18T13:08:04.033Z,23.39
2022-08-18T13:10:42.823Z,23.40
2022-08-18T13:13:15.945Z,23.93
2022-08-18T13:15:55.269Z,24.03
2022-08-18T13:18:28.762Z,24.09
2022-08-18T13:21:00.336Z,24.41
2022-08-18T13:23:28.530Z,24.32
2022-08-18T13:26:01.248Z,24.49
2022-08-18T13:28:35.630Z,24.17
2022-08-18T13:31:16.209Z,24.68
2022-08-18T13:33:57.043Z,24.61
2022-08-18T13:36:28.847Z,24.80
2022-08-18T13:38:56.904Z,24.18
2022-08-18T13:41:33.703Z,24.47
2022-08-18T13:44:01.301Z,24.95
2022-08-18T13:46:31.132Z,25.23
2022-08-18T13:49:23.866Z,25.43
2022-08-18T13:52:00.957Z,24.80
2022-08-18T13:54:35.379Z,24.50
2022-08-18T13:57:05.018Z,24.54
2022-08-18T13:59:34.355Z,24.56
2022-08-18T14:02:05.946Z,24.28
2022-08-18T14:04:38.000Z,24.69
2022-08-18T14:07:10.499Z,24.35
2022-08-18T14:09:39.561Z,24.79
2022-08-18T14:12:32.668Z,25.70
2022-08-18T14:15:00.419Z,26.10
2022-08-18T14:17:30.002Z,26.09
2022-08-18T14:20:21.790Z,25.85
2022-08-18T14:23:11.238Z,25.83
2022-08-18T14:25:56.886Z,26.12
2022-08-18T14:28:27.562Z,26.27
2022-08-18T14:30:55.298Z,26.67
2022-08-18T14:33:34.161Z,26.78
2022-08-18T14:36:30.115Z,26.88
2022-08-18T14:38:59.287Z,26.78
2022-08-18T14:41:27.174Z,27.07
2022-08-18T14:44:12.884Z,27.09
2022-08-18T14:46:52.334Z,26.74
2022-08-18T14:49:28.062Z,26.82
2022-08-18T14:52:01.771Z,26.31
2022-08-18T14:54:30.663Z,26.94
2022-08-18T14:56:59.918Z,26.45
2022-08-18T14:59:28.541Z,26.43
2022-08-18T15:01:56.157Z,26.53
2022-08-18T15:04:25.337Z,26.41
2022-08-18T15:06:56.621Z,26.54
2022-08-18T15:09:27.247Z,26.07
2022-08-18T15:11:56.629Z,26.31
2022-08-18T15:14:33.082Z,26.50
2022-08-18T15:17:11.757Z,26.07
2022-08-18T15:19:59.994Z,26.03
2022-08-18T15:22:47.775Z,26.25
2022-08-18T15:25:34.163Z,26.25
2022-08-18T15:28:01.822Z,26.05
2022-08-18T15:30:29.114Z,26.18
2022-08-18T15:32:59.068Z,26.38
2022-08-18T15:35:31.452Z,25.94
2022-08-18T15:37:58.683Z,26.52
2022-08-18T15:40:30.441Z,26.23
2022-08-18T15:43:03.631Z,26.39
2022-08-18T15:45:56.301Z,26.65
2022-08-18T15:48:27.304Z,26.42
2022-08-18T15:50:55.480Z,26.84
2022-08-18T15:53:29.686Z,26.56
2022-08-18T15:55:57.912Z,26.58
2022-08-18T15:58:26.989Z,27.14
2022-08-18T16:00:56.612Z,27.36
2022-08-18T16:03:26.239Z,27.55
2022-08-18T16:05:55.203Z,27.49
2022-08-18T16:08:24.976Z,27.93
2022-08-18T16:10:53.582Z,27.81
2022-08-18T16:13:20.710Z,28.07
2022-08-18T16:15:50.063Z,28.21
2022-08-18T16:18:21.025Z,28.29
2022-08-18T16:20:48.699Z,28.35
2022-08-18T16:23:20.076Z,29.02
2022-08-18T16:25:47.037Z,28.97
2022-08-18T16:28:14.055Z,29.40
2022-08-18T16:30:41.506Z,29.42
2022-08-18T16:33:08.846Z,29.75
2022-08-18T16:35:38.569Z,29.79
2022-08-18T16:38:08.894Z,29.95
2022-08-18T16:40:37.531Z,30.43
2022-08-18T16:43:07.207Z,30.76
2022-08-18T16:45:37.179Z,30.86
2022-08-18T16:48:06.521Z,30.92
2022-08-18T16:50:34.441Z,31.51
2022-08-18T16:53:01.902Z,31.52
2022-08-18T16:55:29.076Z,31.60
2022-08-18T16:58:15.705Z,31.82
2022-08-18T17:01:02.021Z,31.98
2022-08-18T17:03:47.567Z,31.98
2022-08-18T17:06:34.283Z,32.27
2022-08-18T17:09:20.138Z,32.59
2022-08-18T17:12:06.193Z,32.60
2022-08-18T17:14:52.283Z,32.76
2022-08-18T17:17:38.110Z,33.12
2022-08-18T17:20:07.001Z,33.35
2022-08-18T17:22:38.673Z,33.44
2022-08-18T17:25:08.686Z,33.61
2022-08-18T17:27:38.633Z,33.65
2022-08-18T17:30:13.918Z,33.76
2022-08-18T17:32:46.939Z,33.74
2022-08-18T17:35:26.969Z,34.19
2022-08-18T17:38:04.834Z,34.44
2022-08-18T17:40:51.687Z,34.49
2022-08-18T17:43:21.988Z,34.51
2022-08-18T17:46:04.911Z,34.79
2022-08-18T17:48:43.346Z,35.13
2022-08-18T17:51:37.594Z,35.15
2022-08-18T17:54:42.040Z,35.51
2022-08-18T17:57:12.161Z,35.80
2022-08-18T17:59:51.764Z,35.89
2022-08-18T18:02:29.305Z,36.11
2022-08-18T18:05:12.897Z,36.25
2022-08-18T18:07:51.962Z,36.39
2022-08-18T18:10:28.396Z,36.47
2022-08-18T18:13:13.621Z,36.78
2022-08-18T18:15:47.793Z,36.68
2022-08-18T18:18:46.583Z,37.09
2022-08-18T18:21:19.221Z,37.14
2022-08-18T18:23:56.638Z,37.35
2022-08-18T18:26:30.269Z,37.58
2022-08-18T18:29:33.285Z,37.79
2022-08-18T18:32:05.193Z,37.60
2022-08-18T18:34:44.493Z,37.86
2022-08-18T18:37:47.252Z,37.96
2022-08-18T18:40:26.162Z,38.29
2022-08-18T18:42:55.018Z,38.35
2022-08-18T18:45:32.542Z,38.58
2022-08-18T18:48:43.586Z,38.41
2022-08-18T18:51:10.529Z,38.50
2022-08-18T18:54:00.587Z,38.82
2022-08-18T18:56:33.475Z,39.86
2022-08-18T18:59:13.933Z,40.04
2022-08-18T19:02:13.650Z,39.84
2022-08-18T19:05:27.121Z,39.85
2022-08-18T19:08:02.984Z,39.81
2022-08-18T19:10:32.839Z,39.75
2022-08-18T19:13:09.189Z,39.60
2022-08-18T19:15:38.615Z,39.75
2022-08-18T19:18:24.960Z,39.84
2022-08-18T19:22:02.201Z,39.90
2022-08-18T19:24:05.670Z,40.14
2022-08-18T19:26:44.064Z,40.39
2022-08-18T19:29:22.379Z,40.14
2022-08-18T19:31:58.757Z,40.55
2022-08-18T19:34:31.196Z,40.87
2022-08-18T19:37:27.560Z,41.10
2022-08-18T19:40:17.304Z,41.08
2022-08-18T19:43:03.989Z,41.49
2022-08-18T19:46:14.306Z,41.45
2022-08-18T19:48:49.940Z,41.70
2022-08-18T19:51:29.361Z,42.06
2022-08-18T19:54:13.585Z,41.98
2022-08-18T19:56:58.718Z,42.14
2022-08-18T19:59:49.775Z,42.17
2022-08-18T20:02:38.795Z,42.60
2022-08-18T20:05:39.385Z,42.49
2022-08-18T20:08:31.173Z,42.88
2022-08-18T20:11:41.318Z,42.95
2022-08-18T20:14:17.613Z,42.97
2022-08-18T20:17:10.551Z,43.30
2022-08-18T20:19:42.632Z,43.36
2022-08-18T20:22:24.862Z,43.25
2022-08-18T20:25:05.928Z,43.65
2022-08-18T20:27:45.976Z,43.57
2022-08-18T20:30:30.300Z,43.86
2022-08-18T20:33:20.177Z,43.90
2022-08-18T20:35:54.357Z,44.04
2022-08-18T20:38:50.630Z,44.46
2022-08-18T20:41:23.712Z,44.86
2022-08-18T20:44:01.737Z,44.81
2022-08-18T20:46:51.918Z,44.93
2022-08-18T20:49:46.132Z,45.19
2022-08-18T20:52:58.293Z,45.46
2022-08-18T20:55:30.773Z,45.54
2022-08-18T20:58:08.050Z,45.77
2022-08-18T21:00:40.173Z,45.65
2022-08-18T21:03:12.494Z,45.47
2022-08-18T21:05:43.801Z,45.83
2022-08-18T21:08:27.424Z,45.97
2022-08-18T21:10:59.694Z,45.66
2022-08-18T21:13:41.071Z,45.82
2022-08-18T21:16:12.902Z,45.73
2022-08-18T21:18:48.913Z,45.79
2022-08-18T21:21:32.762Z,45.39
2022-08-18T21:24:05.146Z,44.96
2022-08-18T21:26:33.223Z,44.33
2022-08-18T21:29:20.212Z,44.08
2022-08-18T21:31:48.075Z,43.90
2022-08-18T21:34:28.641Z,43.80
2022-08-18T21:36:58.374Z,43.60
2022-08-18T21:39:28.848Z,43.26
2022-08-18T21:41:58.307Z,43.72
2022-08-18T21:44:29.168Z,43.90
2022-08-18T21:47:05.790Z,43.95
2022-08-18T21:49:34.082Z,43.85
2022-08-18T21:52:01.810Z,44.08
2022-08-18T21:54:32.232Z,43.64
2022-08-18T21:57:27.517Z,43.83
2022-08-18T22:00:38.427Z,43.89
2022-08-18T22:03:20.789Z,43.87
2022-08-18T22:06:13.377Z,44.42
2022-08-18T22:08:55.744Z,44.87
2022-08-18T22:12:01.351Z,45.33
2022-08-18T22:14:54.774Z,45.41
2022-08-18T22:17:35.156Z,45.34
2022-08-18T22:20:36.218Z,45.92
2022-08-18T22:23:56.119Z,46.19
2022-08-18T22:26:28.128Z,46.32
2022-08-18T22:29:01.202Z,46.56
2022-08-18T22:31:34.831Z,46.03
2022-08-18T22:34:07.388Z,45.66
2022-08-18T22:36:40.822Z,45.09
2022-08-18T22:39:11.775Z,44.47
2022-08-18T22:41:41.226Z,43.92
2022-08-18T22:44:08.709Z,43.89
2022-08-18T22:46:37.044Z,43.53
2022-08-18T22:49:05.011Z,43.64
2022-08-18T22:51:33.483Z,43.50
2022-08-18T22:54:00.494Z,43.18
2022-08-18T22:56:34.677Z,43.15
2022-08-18T22:59:15.969Z,43.03
2022-08-18T23:01:50.238Z,42.74
2022-08-18T23:04:19.847Z,42.68
2022-08-18T23:06:52.234Z,42.70
2022-08-18T23:09:26.210Z,42.65
2022-08-18T23:11:55.074Z,42.40
2022-08-18T23:14:25.128Z,42.76
2022-08-18T23:16:54.688Z,42.57
2022-08-18T23:19:22.040Z,42.56
2022-08-18T23:21:50.736Z,42.57
2022-08-18T23:24:19.066Z,42.03
2022-08-18T23:26:46.972Z,42.14
2022-08-18T23:29:14.463Z,42.35
2022-08-18T23:31:43.576Z,42.39
2022-08-18T23:34:13.376Z,42.38
2022-08-18T23:36:45.309Z,42.76
2022-08-18T23:39:14.633Z,42.89
2022-08-18T23:41:44.038Z,43.30
2022-08-18T23:44:12.980Z,43.17
2022-08-18T23:46:43.313Z,43.65
2022-08-18T23:49:15.079Z,43.71
2022-08-18T23:51:51.068Z,43.76
2022-08-18T23:54:21.700Z,44.23
2022-08-18T23:56:49.268Z,44.11
2022-08-18T23:59:18.277Z,44.32
